Hovedside
METAR-TAF:

METAR-TAF

Lufthavner :

Andøya lufthavn. Andenes

Andøya, Norge

breddegrad: 69-18N, lengdegrad: 016-09E, høyde over havet: 1 m

Gjeldene værobservasjon

Denne rapporten ble laget for 33 minutter siden, klokken 04:20 UTC
Vind 9 kt fra Vest-nordvest
Temperatur 7°C
Luftfuktighet 87%
Trykk 1005 hPa
Sikt 10 km eller mer
Få skyer i en høyde av 3300 ft
Brutte skyer i en høyde av 4800 ft
lett regn

METAR: ENAN 160420Z 29009KT 9999 -RA FEW033 BKN048 07/05 Q1005

Tid: 06:53 (04:53 UTC)

Varsel

Varsel gyldig fra 16. klokken 00 UTC til 16. klokken 24 UTC
Vind 12 kt fra Sør-sørvest
Sikt 10 km eller mer
Få skyer i en høyde av 2000 ft
Brutte skyer i en høyde av 4000 ft
lette regnbyger
Midlertidig
fra 16. klokken 00 UTC til 16. klokken 14 UTC
Vind 15 kt fra Vest-sørvest med vindkast opp mot 28 kt
Brutte skyer i en høyde av 1500 ft, Bygeskyer.
regnbyger

TAF: ENAN 1600/1624 20012KT 9999 -SHRA FEW020 BKN040 TEMPO 1600/1614 25015G28KT SHRA BKN015CB

Værobservasjoner og værvarsel for over 4000 flyplasser (METAR- og TAF-rapporter).

Tilgjengelige stasjoner er representert av de røde og gule prikkene på kartet.

Hold musepekeren over prikken for å se navnet på stasjonen.

Klikk så for å se værobservasjoner og -varsler.

For å forandre kartet kan du klikke på den grønne knappen med svart kryss for å zoome inn, på den grønne knappen med strek for å zoome ut, eller på de grønne pilene for å se tilstøtende kart.


METAR-TAF: